Accueil
METAR-TAF:

METAR-TAF

Aéroports :

Turin, Italie

latitude: 45-05-20N, longitude: 007-36-20E, altitude: 288 m

Observation

Le bulletin a été fait il y a 10 heures et 17 minutes, à 15:50 UTC
Vent 4 kt de sud
Température 8°C
Humidité 76%
Pression 1011 hPa
Visibilité: 8000 m
Nuages épars à une hauteur de 3000 ft
pluie

METAR: LIMA 111550Z 19004KT 8000 RA SCT030 08/04 Q1011

Heure: 03:07 (02:07 UTC)


TAF: absent

Observations et prévisions météorologiques de plus de 4000 aéroports (messages METAR et TAF).

Les stations disponibles sont représentées par des disques jaunes et rouges sur la carte.

Passer la souris dessus pour voir le nom de la station.

Cliquer dessus pour voir les observations et prévisions météorologiques.

Pour changer de carte: cliquez sur les boutons verts avec une croix noire pour zoomer, sur le bouton vert avec un tiret pour effectuer un zoom arrière, ou sur les flèches vertes pour les cartes adjacentes.


METAR-TAF: